AAL694 KLAX-KPHX
Flight info
| Callsign | AAL694 |
|---|---|
| Flight time | N/A |
| Altitude | 35000 |
| Route | DOTSS2 CNERY BLH HYDRR1 |
| Aircraft | A21N/M-SDE2E3FGHIRWXY/LB1 |
Departure
| Time | 2026-04-26 03:33 |
|---|---|
| Airport | Los Angeles International Airport (KLAX) |
Arrival
| Time | N/A |
|---|---|
| Airport | Phoenix Sky Harbor International Airport (KPHX) |
| Time | Latitude | Longitude | Altitude | Speed | Heading |
|---|---|---|---|---|---|
| 2026-04-26 02:47 | 33.94719 | -118.40487 | 129 ft | 0 kts | 130° |
| 2026-04-26 03:07 | 33.94721 | -118.40489 | 129 ft | 3 kts | 130° |
| 2026-04-26 03:07 | 33.94733 | -118.40506 | 120 ft | 3 kts | 130° |
| 2026-04-26 03:07 | 33.94745 | -118.40523 | 129 ft | 3 kts | 130° |
| 2026-04-26 03:08 | 33.94757 | -118.40540 | 128 ft | 3 kts | 117° |
| 2026-04-26 03:08 | 33.94759 | -118.40562 | 126 ft | 3 kts | 56° |
| 2026-04-26 03:08 | 33.94757 | -118.40564 | 127 ft | 0 kts | 54° |
| 2026-04-26 03:20 | 33.94758 | -118.40564 | 126 ft | 0 kts | 44° |
| 2026-04-26 03:21 | 33.94763 | -118.40564 | 134 ft | 1 kts | 359° |
| 2026-04-26 03:21 | 33.94767 | -118.40571 | 124 ft | 2 kts | 298° |
| 2026-04-26 03:21 | 33.94777 | -118.40610 | 127 ft | 8 kts | 282° |
| 2026-04-26 03:21 | 33.94772 | -118.40701 | 126 ft | 14 kts | 263° |
| 2026-04-26 03:22 | 33.94757 | -118.40846 | 125 ft | 21 kts | 263° |
| 2026-04-26 03:22 | 33.94739 | -118.41035 | 129 ft | 24 kts | 263° |
| 2026-04-26 03:22 | 33.94709 | -118.41208 | 129 ft | 16 kts | 249° |
| 2026-04-26 03:22 | 33.94670 | -118.41276 | 124 ft | 0 kts | 200° |
| 2026-04-26 03:23 | 33.94657 | -118.41277 | 126 ft | 1 kts | 184° |
| 2026-04-26 03:23 | 33.94595 | -118.41271 | 126 ft | 17 kts | 174° |
| 2026-04-26 03:23 | 33.94513 | -118.41267 | 124 ft | 3 kts | 214° |
| 2026-04-26 03:23 | 33.94494 | -118.41308 | 127 ft | 9 kts | 246° |
| 2026-04-26 03:24 | 33.94457 | -118.41348 | 125 ft | 4 kts | 177° |
| 2026-04-26 03:24 | 33.94400 | -118.41341 | 127 ft | 13 kts | 173° |
| 2026-04-26 03:24 | 33.94278 | -118.41325 | 126 ft | 22 kts | 174° |
| 2026-04-26 03:24 | 33.94098 | -118.41297 | 127 ft | 29 kts | 173° |
| 2026-04-26 03:25 | 33.93887 | -118.41265 | 128 ft | 29 kts | 174° |
| 2026-04-26 03:25 | 33.93774 | -118.41238 | 128 ft | 10 kts | 138° |
| 2026-04-26 03:25 | 33.93759 | -118.41176 | 125 ft | 6 kts | 85° |
| 2026-04-26 03:25 | 33.93764 | -118.41124 | 125 ft | 7 kts | 84° |
| 2026-04-26 03:26 | 33.93773 | -118.41024 | 129 ft | 17 kts | 83° |
| 2026-04-26 03:26 | 33.93791 | -118.40849 | 129 ft | 25 kts | 83° |
| 2026-04-26 03:26 | 33.93794 | -118.40822 | 127 ft | 0 kts | 83° |
| 2026-04-26 03:26 | 33.93796 | -118.40805 | 125 ft | 5 kts | 83° |
| 2026-04-26 03:27 | 33.93806 | -118.40707 | 128 ft | 19 kts | 83° |
| 2026-04-26 03:27 | 33.93824 | -118.40532 | 125 ft | 18 kts | 83° |
| 2026-04-26 03:27 | 33.93842 | -118.40357 | 127 ft | 26 kts | 83° |
| 2026-04-26 03:27 | 33.93852 | -118.40261 | 127 ft | 13 kts | 83° |
| 2026-04-26 03:28 | 33.93866 | -118.40116 | 125 ft | 19 kts | 83° |
| 2026-04-26 03:28 | 33.93878 | -118.40000 | 129 ft | 15 kts | 83° |
| 2026-04-26 03:28 | 33.93892 | -118.39867 | 128 ft | 17 kts | 83° |
| 2026-04-26 03:28 | 33.93906 | -118.39726 | 128 ft | 17 kts | 83° |
| 2026-04-26 03:29 | 33.93922 | -118.39572 | 129 ft | 19 kts | 83° |
| 2026-04-26 03:29 | 33.93939 | -118.39407 | 125 ft | 21 kts | 83° |
| 2026-04-26 03:29 | 33.93957 | -118.39232 | 124 ft | 21 kts | 82° |
| 2026-04-26 03:29 | 33.93975 | -118.39055 | 129 ft | 21 kts | 84° |
| 2026-04-26 03:30 | 33.93993 | -118.38877 | 129 ft | 22 kts | 83° |
| 2026-04-26 03:30 | 33.94012 | -118.38698 | 124 ft | 22 kts | 83° |
| 2026-04-26 03:30 | 33.94030 | -118.38517 | 129 ft | 22 kts | 83° |
| 2026-04-26 03:30 | 33.94045 | -118.38360 | 127 ft | 3 kts | 83° |
| 2026-04-26 03:31 | 33.94045 | -118.38357 | 127 ft | 0 kts | 90° |
| 2026-04-26 03:31 | 33.94042 | -118.38343 | 127 ft | 5 kts | 108° |
| 2026-04-26 03:31 | 33.94036 | -118.38328 | 125 ft | 0 kts | 122° |
| 2026-04-26 03:31 | 33.94032 | -118.38326 | 126 ft | 2 kts | 161° |
| 2026-04-26 03:32 | 33.93985 | -118.38326 | 125 ft | 11 kts | 174° |
| 2026-04-26 03:32 | 33.93953 | -118.38328 | 126 ft | 1 kts | 231° |
| 2026-04-26 03:32 | 33.93952 | -118.38337 | 125 ft | 0 kts | 265° |
| 2026-04-26 03:33 | 33.93952 | -118.38346 | 125 ft | 7 kts | 265° |
| 2026-04-26 03:33 | 33.93914 | -118.38718 | 129 ft | 84 kts | 263° |
| 2026-04-26 03:33 | 33.93808 | -118.39746 | 126 ft | 161 kts | 263° |
| 2026-04-26 03:33 | 33.93666 | -118.41151 | 832 ft | 168 kts | 262° |
| 2026-04-26 03:34 | 33.93526 | -118.42521 | 1857 ft | 163 kts | 263° |
| 2026-04-26 03:34 | 33.93382 | -118.43924 | 2614 ft | 179 kts | 263° |
| 2026-04-26 03:34 | 33.93133 | -118.45527 | 2996 ft | 211 kts | 252° |
| 2026-04-26 03:34 | 33.92372 | -118.47150 | 3554 ft | 231 kts | 236° |
| 2026-04-26 03:35 | 33.91379 | -118.48685 | 4419 ft | 235 kts | 233° |
| 2026-04-26 03:35 | 33.90314 | -118.50204 | 5146 ft | 240 kts | 232° |
| 2026-04-26 03:35 | 33.89222 | -118.51741 | 5511 ft | 242 kts | 232° |
| 2026-04-26 03:35 | 33.88129 | -118.53283 | 5511 ft | 242 kts | 232° |
| 2026-04-26 03:36 | 33.86938 | -118.54727 | 5280 ft | 245 kts | 220° |
| 2026-04-26 03:36 | 33.85417 | -118.55674 | 5049 ft | 250 kts | 199° |
| 2026-04-26 03:36 | 33.83693 | -118.55832 | 5003 ft | 256 kts | 178° |
| 2026-04-26 03:36 | 33.81906 | -118.55455 | 5003 ft | 259 kts | 171° |
| 2026-04-26 03:37 | 33.80152 | -118.54966 | 4998 ft | 259 kts | 171° |
| 2026-04-26 03:37 | 33.78405 | -118.54469 | 5003 ft | 259 kts | 170° |
| 2026-04-26 03:37 | 33.76671 | -118.53982 | 4999 ft | 259 kts | 171° |
| 2026-04-26 03:37 | 33.74920 | -118.53500 | 4990 ft | 258 kts | 171° |
| 2026-04-26 03:38 | 33.73169 | -118.53022 | 4995 ft | 259 kts | 170° |
| 2026-04-26 03:38 | 33.71434 | -118.52400 | 4989 ft | 262 kts | 160° |
| 2026-04-26 03:38 | 33.69916 | -118.51175 | 5002 ft | 267 kts | 137° |
| 2026-04-26 03:38 | 33.68885 | -118.49323 | 5007 ft | 269 kts | 115° |
| 2026-04-26 03:39 | 33.68259 | -118.47201 | 4989 ft | 271 kts | 108° |
| 2026-04-26 03:39 | 33.67663 | -118.45053 | 4999 ft | 271 kts | 110° |
| 2026-04-26 03:39 | 33.67029 | -118.42919 | 5001 ft | 272 kts | 111° |
| 2026-04-26 03:39 | 33.66390 | -118.40786 | 5003 ft | 271 kts | 111° |
| 2026-04-26 03:40 | 33.65753 | -118.38655 | 5063 ft | 272 kts | 111° |
| 2026-04-26 03:40 | 33.65112 | -118.36508 | 5689 ft | 272 kts | 111° |
| 2026-04-26 03:40 | 33.64584 | -118.34339 | 6633 ft | 272 kts | 101° |
| 2026-04-26 03:40 | 33.64429 | -118.32060 | 7418 ft | 276 kts | 92° |
| 2026-04-26 03:41 | 33.64419 | -118.29726 | 8126 ft | 283 kts | 90° |
| 2026-04-26 03:41 | 33.64433 | -118.27347 | 8865 ft | 287 kts | 91° |
| 2026-04-26 03:41 | 33.64447 | -118.24932 | 9608 ft | 292 kts | 91° |
| 2026-04-26 03:41 | 33.64455 | -118.22472 | 10282 ft | 298 kts | 91° |
| 2026-04-26 03:42 | 33.64461 | -118.19967 | 10952 ft | 302 kts | 91° |
| 2026-04-26 03:42 | 33.64464 | -118.17426 | 11633 ft | 306 kts | 92° |
| 2026-04-26 03:42 | 33.64465 | -118.14856 | 12336 ft | 310 kts | 92° |
| 2026-04-26 03:42 | 33.64465 | -118.12245 | 13041 ft | 315 kts | 92° |
| 2026-04-26 03:43 | 33.64464 | -118.09602 | 13733 ft | 319 kts | 93° |
| 2026-04-26 03:43 | 33.64462 | -118.06916 | 14352 ft | 324 kts | 93° |
| 2026-04-26 03:43 | 33.64460 | -118.04198 | 14945 ft | 328 kts | 93° |
| 2026-04-26 03:43 | 33.64457 | -118.01448 | 15572 ft | 331 kts | 94° |
| 2026-04-26 03:44 | 33.64453 | -117.98677 | 16174 ft | 334 kts | 94° |
| 2026-04-26 03:44 | 33.64448 | -117.95872 | 16744 ft | 337 kts | 94° |
| 2026-04-26 03:44 | 33.64443 | -117.93052 | 17015 ft | 339 kts | 94° |
| 2026-04-26 03:44 | 33.64438 | -117.90218 | 17022 ft | 340 kts | 94° |
| 2026-04-26 03:45 | 33.64432 | -117.87377 | 17015 ft | 341 kts | 94° |
| 2026-04-26 03:45 | 33.64425 | -117.84522 | 17013 ft | 342 kts | 94° |
| 2026-04-26 03:45 | 33.64398 | -117.81666 | 17212 ft | 343 kts | 96° |
| 2026-04-26 03:45 | 33.64136 | -117.78835 | 17850 ft | 340 kts | 106° |
| 2026-04-26 03:46 | 33.63579 | -117.76089 | 18426 ft | 340 kts | 111° |
| 2026-04-26 03:46 | 33.62917 | -117.73354 | 18887 ft | 344 kts | 112° |
| 2026-04-26 03:46 | 33.62231 | -117.70598 | 19373 ft | 347 kts | 113° |
| 2026-04-26 03:47 | 33.60835 | -117.64989 | 20351 ft | 355 kts | 114° |
| 2026-04-26 03:47 | 33.60128 | -117.62133 | 20819 ft | 359 kts | 114° |
| 2026-04-26 03:47 | 33.59416 | -117.59257 | 21287 ft | 362 kts | 114° |
| 2026-04-26 03:47 | 33.58696 | -117.56348 | 21732 ft | 366 kts | 114° |
| 2026-04-26 03:48 | 33.57977 | -117.53446 | 22171 ft | 369 kts | 115° |
| 2026-04-26 03:48 | 33.57239 | -117.50472 | 22578 ft | 374 kts | 115° |
| 2026-04-26 03:48 | 33.56477 | -117.47423 | 22689 ft | 390 kts | 115° |
| 2026-04-26 03:48 | 33.55684 | -117.44252 | 22934 ft | 404 kts | 115° |
| 2026-04-26 03:49 | 33.54855 | -117.40936 | 23119 ft | 417 kts | 115° |
| 2026-04-26 03:49 | 33.54023 | -117.37601 | 23299 ft | 429 kts | 115° |
| 2026-04-26 03:49 | 33.53155 | -117.34124 | 23447 ft | 442 kts | 115° |
| 2026-04-26 03:49 | 33.52252 | -117.30500 | 23639 ft | 453 kts | 115° |
| 2026-04-26 03:50 | 33.51343 | -117.26843 | 23821 ft | 464 kts | 114° |
| 2026-04-26 03:50 | 33.50633 | -117.23019 | 24080 ft | 479 kts | 104° |
| 2026-04-26 03:50 | 33.50390 | -117.19037 | 24443 ft | 489 kts | 97° |
| 2026-04-26 03:50 | 33.50322 | -117.14895 | 24772 ft | 493 kts | 96° |
| 2026-04-26 03:51 | 33.50285 | -117.10774 | 25136 ft | 496 kts | 96° |
| 2026-04-26 03:51 | 33.50243 | -117.06630 | 25484 ft | 499 kts | 96° |
| 2026-04-26 03:51 | 33.50194 | -117.02468 | 25833 ft | 502 kts | 97° |
| 2026-04-26 03:51 | 33.50139 | -116.98271 | 26146 ft | 505 kts | 97° |
| 2026-04-26 03:52 | 33.50080 | -116.94057 | 26485 ft | 507 kts | 97° |
| 2026-04-26 03:52 | 33.50019 | -116.89816 | 26806 ft | 510 kts | 97° |
| 2026-04-26 03:52 | 33.49954 | -116.85561 | 27026 ft | 513 kts | 97° |
| 2026-04-26 03:52 | 33.49889 | -116.81333 | 27294 ft | 516 kts | 97° |
| 2026-04-26 03:53 | 33.49820 | -116.77025 | 27567 ft | 518 kts | 97° |
| 2026-04-26 03:53 | 33.49750 | -116.72696 | 27798 ft | 521 kts | 97° |
| 2026-04-26 03:53 | 33.49677 | -116.68348 | 28047 ft | 523 kts | 97° |
| 2026-04-26 03:53 | 33.49602 | -116.63921 | 28306 ft | 526 kts | 97° |
| 2026-04-26 03:54 | 33.49526 | -116.59532 | 28524 ft | 528 kts | 97° |
| 2026-04-26 03:54 | 33.49449 | -116.55182 | 28662 ft | 531 kts | 97° |
| 2026-04-26 03:54 | 33.49371 | -116.50782 | 29176 ft | 527 kts | 98° |
| 2026-04-26 03:54 | 33.49293 | -116.46394 | 29614 ft | 525 kts | 98° |
| 2026-04-26 03:55 | 33.49213 | -116.42021 | 29941 ft | 527 kts | 98° |
| 2026-04-26 03:55 | 33.49145 | -116.37631 | 30228 ft | 528 kts | 98° |
| 2026-04-26 03:55 | 33.49081 | -116.33243 | 30554 ft | 527 kts | 97° |
| 2026-04-26 03:55 | 33.49018 | -116.28850 | 30659 ft | 527 kts | 97° |
| 2026-04-26 03:56 | 33.48950 | -116.24458 | 30849 ft | 528 kts | 98° |
| 2026-04-26 03:56 | 33.48882 | -116.20064 | 31125 ft | 528 kts | 98° |
| 2026-04-26 03:56 | 33.48812 | -116.15679 | 31437 ft | 526 kts | 98° |
| 2026-04-26 03:56 | 33.48741 | -116.11290 | 31668 ft | 527 kts | 98° |
| 2026-04-26 03:57 | 33.48700 | -116.06892 | 31907 ft | 530 kts | 95° |
| 2026-04-26 03:57 | 33.49097 | -116.02467 | 32145 ft | 540 kts | 82° |
| 2026-04-26 03:57 | 33.50129 | -115.98115 | 32385 ft | 545 kts | 75° |
| 2026-04-26 03:57 | 33.51368 | -115.93825 | 32646 ft | 545 kts | 73° |
| 2026-04-26 03:58 | 33.52644 | -115.89520 | 32729 ft | 549 kts | 73° |
| 2026-04-26 03:58 | 33.53491 | -115.86660 | 32832 ft | 551 kts | 73° |
| 2026-04-26 03:58 | 33.54766 | -115.82336 | 33097 ft | 550 kts | 73° |
| 2026-04-26 03:58 | 33.56028 | -115.78030 | 33382 ft | 549 kts | 74° |
| 2026-04-26 03:59 | 33.57291 | -115.73705 | 33588 ft | 549 kts | 74° |
| 2026-04-26 03:59 | 33.58957 | -115.67978 | 33854 ft | 549 kts | 74° |
| 2026-04-26 03:59 | 33.59807 | -115.65049 | 33991 ft | 549 kts | 74° |
| 2026-04-26 03:59 | 33.61059 | -115.60732 | 34207 ft | 545 kts | 73° |
| 2026-04-26 04:00 | 33.62172 | -115.56421 | 34542 ft | 538 kts | 82° |
| 2026-04-26 04:00 | 33.62646 | -115.52016 | 34681 ft | 527 kts | 97° |
| 2026-04-26 04:00 | 33.62308 | -115.47705 | 34748 ft | 514 kts | 111° |
| 2026-04-26 04:01 | 33.61358 | -115.39130 | 34785 ft | 525 kts | 99° |
| 2026-04-26 04:01 | 33.61098 | -115.30355 | 34784 ft | 527 kts | 99° |
| 2026-04-26 04:02 | 33.60874 | -115.21632 | 34778 ft | 526 kts | 99° |
| 2026-04-26 04:02 | 33.60643 | -115.12809 | 34776 ft | 525 kts | 99° |
| 2026-04-26 04:03 | 33.60408 | -115.04117 | 34782 ft | 525 kts | 99° |
| 2026-04-26 04:03 | 33.60165 | -114.95367 | 34785 ft | 525 kts | 99° |
| 2026-04-26 04:04 | 33.59916 | -114.86616 | 34800 ft | 526 kts | 99° |
| 2026-04-26 04:04 | 33.59638 | -114.77809 | 34167 ft | 530 kts | 102° |
| 2026-04-26 04:04 | 33.59100 | -114.73475 | 33260 ft | 524 kts | 110° |
| 2026-04-26 04:05 | 33.58310 | -114.69220 | 32345 ft | 525 kts | 112° |
| 2026-04-26 04:05 | 33.57471 | -114.64953 | 31532 ft | 526 kts | 112° |
| 2026-04-26 04:05 | 33.56629 | -114.60685 | 30784 ft | 525 kts | 111° |
| 2026-04-26 04:05 | 33.55798 | -114.56446 | 30314 ft | 519 kts | 111° |
| 2026-04-26 04:06 | 33.54981 | -114.52263 | 29862 ft | 512 kts | 111° |
| 2026-04-26 04:06 | 33.54174 | -114.48137 | 29337 ft | 505 kts | 111° |
| 2026-04-26 04:06 | 33.53378 | -114.44074 | 28885 ft | 497 kts | 111° |
| 2026-04-26 04:06 | 33.52594 | -114.40077 | 28433 ft | 490 kts | 112° |
| 2026-04-26 04:07 | 33.51822 | -114.36146 | 28004 ft | 482 kts | 111° |
| 2026-04-26 04:07 | 33.51063 | -114.32266 | 27569 ft | 474 kts | 112° |
| 2026-04-26 04:07 | 33.50308 | -114.28445 | 27126 ft | 468 kts | 112° |
| 2026-04-26 04:07 | 33.49559 | -114.24667 | 26692 ft | 462 kts | 112° |
| 2026-04-26 04:08 | 33.48819 | -114.20939 | 26279 ft | 457 kts | 112° |
| 2026-04-26 04:08 | 33.48089 | -114.17262 | 25866 ft | 451 kts | 112° |
| 2026-04-26 04:08 | 33.47365 | -114.13623 | 25454 ft | 447 kts | 112° |
| 2026-04-26 04:08 | 33.46648 | -114.10025 | 25039 ft | 443 kts | 112° |
| 2026-04-26 04:09 | 33.45927 | -114.06430 | 24815 ft | 446 kts | 112° |
| 2026-04-26 04:09 | 33.45194 | -114.02800 | 24784 ft | 451 kts | 112° |
| 2026-04-26 04:09 | 33.44458 | -113.99141 | 24729 ft | 452 kts | 111° |
| 2026-04-26 04:09 | 33.43734 | -113.95538 | 24240 ft | 452 kts | 111° |
| 2026-04-26 04:10 | 33.43006 | -113.91900 | 23760 ft | 448 kts | 111° |
| 2026-04-26 04:10 | 33.42285 | -113.88292 | 23375 ft | 442 kts | 111° |
| 2026-04-26 04:10 | 33.41575 | -113.84749 | 23044 ft | 438 kts | 111° |
| 2026-04-26 04:10 | 33.40859 | -113.81204 | 22772 ft | 437 kts | 111° |
| 2026-04-26 04:11 | 33.40149 | -113.77679 | 22486 ft | 435 kts | 111° |
| 2026-04-26 04:11 | 33.39440 | -113.74171 | 22194 ft | 431 kts | 111° |
| 2026-04-26 04:11 | 33.38736 | -113.70687 | 21890 ft | 429 kts | 111° |
| 2026-04-26 04:11 | 33.38034 | -113.67222 | 21628 ft | 428 kts | 111° |
| 2026-04-26 04:12 | 33.37333 | -113.63767 | 21363 ft | 427 kts | 111° |
| 2026-04-26 04:12 | 33.36633 | -113.60330 | 21079 ft | 424 kts | 111° |
| 2026-04-26 04:12 | 33.35937 | -113.56909 | 20790 ft | 422 kts | 111° |
| 2026-04-26 04:12 | 33.35246 | -113.53513 | 20504 ft | 419 kts | 110° |
| 2026-04-26 04:13 | 33.34557 | -113.50137 | 20223 ft | 417 kts | 110° |
| 2026-04-26 04:13 | 33.33873 | -113.46778 | 19935 ft | 415 kts | 110° |
| 2026-04-26 04:13 | 33.33256 | -113.43409 | 19608 ft | 414 kts | 108° |
| 2026-04-26 04:13 | 33.32677 | -113.40052 | 19336 ft | 410 kts | 108° |
| 2026-04-26 04:14 | 33.32107 | -113.36723 | 19070 ft | 407 kts | 108° |
| 2026-04-26 04:14 | 33.31538 | -113.33416 | 18787 ft | 405 kts | 108° |
| 2026-04-26 04:14 | 33.30972 | -113.30134 | 18536 ft | 402 kts | 108° |
| 2026-04-26 04:14 | 33.30408 | -113.26878 | 18268 ft | 400 kts | 108° |
| 2026-04-26 04:15 | 33.29848 | -113.23630 | 18003 ft | 398 kts | 107° |
| 2026-04-26 04:15 | 33.29353 | -113.20389 | 17712 ft | 397 kts | 105° |
| 2026-04-26 04:15 | 33.28887 | -113.17144 | 17448 ft | 395 kts | 105° |
| 2026-04-26 04:15 | 33.28427 | -113.13919 | 17192 ft | 393 kts | 105° |
| 2026-04-26 04:16 | 33.27969 | -113.10713 | 16956 ft | 387 kts | 105° |
| 2026-04-26 04:16 | 33.27560 | -113.07583 | 16758 ft | 377 kts | 100° |
| 2026-04-26 04:16 | 33.27480 | -113.04462 | 16449 ft | 377 kts | 94° |
| 2026-04-26 04:16 | 33.27546 | -113.01309 | 16191 ft | 380 kts | 92° |
| 2026-04-26 04:17 | 33.27636 | -112.98154 | 15938 ft | 380 kts | 92° |
| 2026-04-26 04:17 | 33.27724 | -112.95002 | 15705 ft | 378 kts | 92° |
| 2026-04-26 04:17 | 33.27809 | -112.91874 | 15574 ft | 376 kts | 92° |
| 2026-04-26 04:17 | 33.27889 | -112.88757 | 15414 ft | 375 kts | 92° |
| 2026-04-26 04:18 | 33.27967 | -112.85678 | 15235 ft | 365 kts | 92° |
| 2026-04-26 04:18 | 33.28055 | -112.82689 | 15028 ft | 356 kts | 90° |
| 2026-04-26 04:18 | 33.28270 | -112.79767 | 14747 ft | 353 kts | 88° |
| 2026-04-26 04:18 | 33.28541 | -112.76856 | 14473 ft | 352 kts | 87° |
| 2026-04-26 04:19 | 33.28819 | -112.73954 | 14253 ft | 350 kts | 87° |
| 2026-04-26 04:19 | 33.29091 | -112.71104 | 14025 ft | 348 kts | 87° |
| 2026-04-26 04:19 | 33.29367 | -112.68195 | 13793 ft | 346 kts | 87° |
| 2026-04-26 04:19 | 33.29632 | -112.65377 | 13563 ft | 346 kts | 88° |
| 2026-04-26 04:20 | 33.29899 | -112.62518 | 13320 ft | 345 kts | 87° |
| 2026-04-26 04:20 | 33.30165 | -112.59676 | 13083 ft | 343 kts | 87° |
| 2026-04-26 04:20 | 33.30428 | -112.56855 | 12856 ft | 340 kts | 88° |
| 2026-04-26 04:20 | 33.30688 | -112.54049 | 12626 ft | 338 kts | 87° |
| 2026-04-26 04:21 | 33.30945 | -112.51261 | 12405 ft | 337 kts | 88° |
| 2026-04-26 04:21 | 33.31201 | -112.48487 | 12182 ft | 335 kts | 88° |
| 2026-04-26 04:21 | 33.31456 | -112.45731 | 11973 ft | 333 kts | 88° |
| 2026-04-26 04:21 | 33.31707 | -112.42998 | 11739 ft | 329 kts | 87° |
| 2026-04-26 04:22 | 33.31954 | -112.40294 | 11533 ft | 326 kts | 87° |
| 2026-04-26 04:22 | 33.32199 | -112.37613 | 11320 ft | 324 kts | 88° |
| 2026-04-26 04:22 | 33.32443 | -112.34944 | 11104 ft | 322 kts | 87° |
| 2026-04-26 04:22 | 33.32686 | -112.32258 | 10898 ft | 320 kts | 87° |
| 2026-04-26 04:23 | 33.32924 | -112.29650 | 10685 ft | 319 kts | 88° |
| 2026-04-26 04:23 | 33.33167 | -112.26986 | 10468 ft | 317 kts | 87° |
| 2026-04-26 04:23 | 33.33405 | -112.24375 | 10261 ft | 315 kts | 88° |
| 2026-04-26 04:23 | 33.33638 | -112.21811 | 10058 ft | 311 kts | 88° |
| 2026-04-26 04:24 | 33.33868 | -112.19294 | 9931 ft | 297 kts | 88° |
| 2026-04-26 04:24 | 33.34090 | -112.16858 | 9802 ft | 285 kts | 88° |
| 2026-04-26 04:24 | 33.34300 | -112.14518 | 9671 ft | 283 kts | 88° |
| 2026-04-26 04:24 | 33.34508 | -112.12178 | 9474 ft | 284 kts | 88° |
| 2026-04-26 04:25 | 33.34703 | -112.09822 | 9271 ft | 282 kts | 90° |
| 2026-04-26 04:25 | 33.34752 | -112.07498 | 8917 ft | 278 kts | 94° |
| 2026-04-26 04:25 | 33.34735 | -112.05220 | 8612 ft | 278 kts | 95° |
| 2026-04-26 04:25 | 33.34701 | -112.02912 | 8322 ft | 276 kts | 95° |
| 2026-04-26 04:26 | 33.34666 | -112.00626 | 8033 ft | 275 kts | 95° |
| 2026-04-26 04:26 | 33.34633 | -111.98343 | 7753 ft | 274 kts | 95° |
| 2026-04-26 04:26 | 33.34600 | -111.96070 | 7466 ft | 272 kts | 95° |
| 2026-04-26 04:26 | 33.34589 | -111.93814 | 7186 ft | 271 kts | 89° |
| 2026-04-26 04:27 | 33.35112 | -111.91668 | 6971 ft | 273 kts | 56° |
| 2026-04-26 04:27 | 33.36538 | -111.90237 | 6985 ft | 269 kts | 19° |
| 2026-04-26 04:27 | 33.38358 | -111.89973 | 7000 ft | 265 kts | 350° |
| 2026-04-26 04:27 | 33.40184 | -111.90279 | 6991 ft | 265 kts | 352° |
| 2026-04-26 04:28 | 33.42036 | -111.90070 | 6999 ft | 270 kts | 9° |
| 2026-04-26 04:28 | 33.43818 | -111.89993 | 7025 ft | 244 kts | 340° |
| 2026-04-26 04:28 | 33.45067 | -111.90970 | 7029 ft | 193 kts | 297° |
| 2026-04-26 04:28 | 33.45280 | -111.92295 | 6999 ft | 145 kts | 250° |
| 2026-04-26 04:29 | 33.44947 | -111.93383 | 7012 ft | 138 kts | 245° |
| 2026-04-26 04:29 | 33.44643 | -111.94481 | 7038 ft | 145 kts | 249° |
| 2026-04-26 04:29 | 33.44355 | -111.95828 | 6956 ft | 193 kts | 257° |
| 2026-04-26 04:29 | 33.44178 | -111.97614 | 6967 ft | 239 kts | 263° |
| 2026-04-26 04:30 | 33.44084 | -111.99788 | 6983 ft | 284 kts | 265° |
| 2026-04-26 04:30 | 33.44051 | -112.02340 | 6978 ft | 328 kts | 268° |
| 2026-04-26 04:30 | 33.44075 | -112.03997 | 6975 ft | 351 kts | 269° |